Terminal Aerodrome Forecast
Issued by NWS Wichita, KS

Home | Current Version | Previous Version | Text Only | Print | Product List | Glossary On
Versions: 1 2 3 4 5 6 7 8 9 10 11 12 13 14 15 16 17
677
FTUS43 KICT 132336
TAFICT
TAF
KICT 132336Z 1400/1424 13010KT P6SM SCT080 BKN150
     FM140300 14009KT P6SM BKN050
     FM140900 15005KT P6SM OVC012
     FM141200 VRB04KT P6SM BKN035
     FM141500 28007KT P6SM BKN250
     FM141900 34012KT P6SM SCT250=

USA.gov is the U.S. government's official web portal to all federal, state and local government web resources and services.